createdAt,value
2022-12-19T00:01:34.914Z,1.73
2022-12-19T00:04:02.263Z,1.30
2022-12-19T00:06:35.312Z,1.38
2022-12-19T00:09:02.440Z,1.23
2022-12-19T00:11:29.699Z,0.93
2022-12-19T00:13:56.915Z,1.13
2022-12-19T00:16:24.136Z,0.88
2022-12-19T00:18:51.364Z,1.45
2022-12-19T00:21:22.543Z,1.20
2022-12-19T00:23:49.817Z,1.10
2022-12-19T00:26:17.076Z,1.08
2022-12-19T00:28:46.488Z,1.45
2022-12-19T00:31:14.726Z,1.38
2022-12-19T00:33:43.510Z,1.30
2022-12-19T00:36:12.363Z,1.60
2022-12-19T00:38:39.534Z,1.40
2022-12-19T00:41:09.359Z,1.50
2022-12-19T00:43:36.636Z,1.33
2022-12-19T00:46:04.087Z,1.10
2022-12-19T00:48:31.364Z,1.23
2022-12-19T00:50:58.581Z,1.23
2022-12-19T00:53:25.863Z,1.20
2022-12-19T00:55:53.051Z,1.08
2022-12-19T00:58:20.374Z,1.30
2022-12-19T01:00:48.805Z,1.48
2022-12-19T01:03:16.099Z,1.40
2022-12-19T01:05:43.325Z,1.70
2022-12-19T01:08:10.882Z,1.08
2022-12-19T01:10:39.227Z,1.45
2022-12-19T01:13:07.528Z,1.50
2022-12-19T01:15:34.884Z,1.25
2022-12-19T01:18:04.572Z,1.83
2022-12-19T01:20:31.868Z,1.65
2022-12-19T01:23:00.392Z,2.35
2022-12-19T01:25:28.365Z,1.73
2022-12-19T01:27:55.675Z,2.08
2022-12-19T01:30:22.828Z,1.23
2022-12-19T01:32:50.255Z,1.50
2022-12-19T01:35:21.605Z,2.03
2022-12-19T01:37:49.517Z,1.55
2022-12-19T01:40:16.937Z,2.00
2022-12-19T01:42:44.113Z,1.75
2022-12-19T01:45:13.978Z,1.10
2022-12-19T01:47:41.445Z,1.50
2022-12-19T01:50:08.623Z,1.25
2022-12-19T01:52:35.850Z,1.48
2022-12-19T01:55:03.121Z,1.45
2022-12-19T01:57:30.401Z,1.50
2022-12-19T01:59:57.575Z,1.65
2022-12-19T02:02:24.893Z,1.50
2022-12-19T02:04:52.224Z,2.17
2022-12-19T02:07:19.425Z,1.70
2022-12-19T02:09:47.009Z,1.88
2022-12-19T02:12:14.398Z,1.80
2022-12-19T02:14:41.610Z,1.98
2022-12-19T02:17:08.857Z,2.17
2022-12-19T02:19:36.589Z,2.45
2022-12-19T02:22:03.861Z,2.10
2022-12-19T02:24:31.793Z,2.38
2022-12-19T02:27:01.983Z,2.50
2022-12-19T02:29:29.274Z,2.53
2022-12-19T02:31:56.630Z,3.03
2022-12-19T02:34:24.008Z,3.92
2022-12-19T02:37:02.946Z,4.32
2022-12-19T02:39:33.765Z,2.75
2022-12-19T02:42:01.824Z,2.95
2022-12-19T02:44:29.036Z,3.30
2022-12-19T02:46:56.600Z,3.08
2022-12-19T02:49:30.452Z,2.40
2022-12-19T02:51:59.154Z,2.97
2022-12-19T02:54:26.356Z,5.95
2022-12-19T02:56:53.951Z,2.63
2022-12-19T02:59:21.189Z,2.92
2022-12-19T03:01:48.959Z,2.60
2022-12-19T03:04:16.203Z,4.22
2022-12-19T03:06:43.761Z,1.90
2022-12-19T03:09:14.177Z,2.45
2022-12-19T03:11:42.548Z,2.83
2022-12-19T03:14:10.771Z,2.47
2022-12-19T03:16:38.194Z,4.15
2022-12-19T03:19:05.827Z,3.40
2022-12-19T03:21:33.243Z,3.58
2022-12-19T03:24:00.411Z,3.10
2022-12-19T03:26:27.722Z,2.65
2022-12-19T03:28:54.977Z,2.90
2022-12-19T03:31:22.262Z,4.22
2022-12-19T03:33:49.458Z,3.65
2022-12-19T03:36:16.641Z,3.45
2022-12-19T03:38:43.805Z,6.03
2022-12-19T03:41:11.093Z,3.45
2022-12-19T03:43:38.319Z,3.80
2022-12-19T03:46:05.646Z,3.75
2022-12-19T03:48:32.896Z,3.17
2022-12-19T03:51:00.147Z,3.63
2022-12-19T03:53:27.299Z,3.75
2022-12-19T03:55:54.524Z,3.20
2022-12-19T03:58:21.803Z,3.17
2022-12-19T04:00:49.040Z,3.50
2022-12-19T04:03:16.239Z,2.97
2022-12-19T04:05:43.536Z,4.25
2022-12-19T04:08:10.754Z,3.88
2022-12-19T04:10:38.136Z,3.40
2022-12-19T04:13:05.483Z,2.47
2022-12-19T04:15:32.766Z,2.13
2022-12-19T04:18:00.021Z,2.25
2022-12-19T04:20:27.289Z,2.60
2022-12-19T04:22:55.001Z,3.00
2022-12-19T04:25:26.280Z,2.63
2022-12-19T04:27:56.374Z,3.35
2022-12-19T04:30:23.564Z,2.70
2022-12-19T04:32:50.812Z,3.58
2022-12-19T04:35:18.053Z,2.50
2022-12-19T04:37:45.414Z,3.55
2022-12-19T04:40:12.617Z,2.85
2022-12-19T04:42:40.139Z,4.70
2022-12-19T04:45:07.307Z,2.60
2022-12-19T04:47:34.814Z,2.50
2022-12-19T04:50:02.024Z,2.42
2022-12-19T04:52:29.245Z,2.22
2022-12-19T04:54:56.591Z,2.22
2022-12-19T04:57:23.910Z,2.50
2022-12-19T04:59:51.102Z,2.22
2022-12-19T05:02:18.408Z,2.10
2022-12-19T05:04:45.748Z,2.08
2022-12-19T05:07:12.989Z,2.10
2022-12-19T05:09:40.249Z,1.73
2022-12-19T05:12:07.611Z,1.90
2022-12-19T05:14:34.857Z,2.45
2022-12-19T05:17:02.073Z,2.20
2022-12-19T05:19:29.311Z,1.60
2022-12-19T05:21:56.560Z,2.08
2022-12-19T05:24:23.770Z,2.28
2022-12-19T05:26:51.047Z,1.75
2022-12-19T05:29:18.366Z,1.48
2022-12-19T05:31:45.647Z,1.30
2022-12-19T05:34:12.901Z,1.40
2022-12-19T05:36:40.093Z,1.13
2022-12-19T05:39:07.285Z,1.50
2022-12-19T05:41:34.513Z,1.83
2022-12-19T05:44:01.663Z,1.50
2022-12-19T05:46:28.956Z,2.25
2022-12-19T05:48:56.173Z,1.70
2022-12-19T05:51:23.580Z,1.67
2022-12-19T05:53:50.758Z,1.88
2022-12-19T05:56:18.058Z,1.63
2022-12-19T05:58:45.305Z,2.40
2022-12-19T06:01:12.592Z,2.60
2022-12-19T06:03:39.870Z,2.45
2022-12-19T06:06:07.187Z,1.55
2022-12-19T06:08:34.333Z,1.83
2022-12-19T06:11:01.661Z,1.85
2022-12-19T06:13:29.034Z,1.45
2022-12-19T06:15:56.328Z,2.22
2022-12-19T06:18:23.681Z,1.02
2022-12-19T06:20:50.862Z,0.80
2022-12-19T06:23:18.105Z,1.42
2022-12-19T06:25:45.726Z,1.50
2022-12-19T06:28:13.055Z,1.70
2022-12-19T06:30:40.284Z,2.28
2022-12-19T06:33:07.490Z,2.08
2022-12-19T06:35:35.468Z,2.25
2022-12-19T06:38:02.724Z,2.45
2022-12-19T06:40:48.722Z,1.60
2022-12-19T06:43:15.994Z,2.00
2022-12-19T06:45:43.437Z,1.88
2022-12-19T06:48:10.843Z,3.88
2022-12-19T06:50:37.994Z,2.65
2022-12-19T06:53:05.487Z,2.28
2022-12-19T06:55:32.895Z,2.13
2022-12-19T06:58:00.127Z,2.05
2022-12-19T07:00:27.465Z,1.77
2022-12-19T07:02:54.789Z,2.08
2022-12-19T07:05:22.177Z,2.30
2022-12-19T07:07:50.162Z,2.10
2022-12-19T07:10:17.541Z,1.77
2022-12-19T07:12:44.732Z,1.23
2022-12-19T07:15:12.422Z,2.22
2022-12-19T07:17:39.664Z,2.60
2022-12-19T07:20:06.921Z,2.88
2022-12-19T07:22:34.188Z,1.95
2022-12-19T07:25:01.477Z,2.17
2022-12-19T07:27:35.419Z,1.45
2022-12-19T07:30:03.238Z,1.67
2022-12-19T07:32:30.476Z,1.85
2022-12-19T07:34:57.831Z,1.48
2022-12-19T07:37:25.063Z,1.58
2022-12-19T07:39:53.137Z,2.65
2022-12-19T07:42:21.391Z,1.98
2022-12-19T07:44:48.690Z,1.60
2022-12-19T07:47:15.833Z,1.27
2022-12-19T07:49:43.049Z,1.30
2022-12-19T07:52:10.248Z,1.77
2022-12-19T07:54:37.552Z,1.23
2022-12-19T07:57:05.206Z,1.67
2022-12-19T07:59:38.660Z,1.75
2022-12-19T08:02:06.820Z,1.52
2022-12-19T08:04:35.296Z,2.08
2022-12-19T08:07:05.135Z,2.22
2022-12-19T08:09:32.855Z,1.95
2022-12-19T08:12:00.158Z,2.00
2022-12-19T08:14:27.387Z,2.63
2022-12-19T08:19:41.924Z,2.03
2022-12-19T08:22:09.076Z,2.78
2022-12-19T08:24:36.619Z,3.20
2022-12-19T08:27:03.885Z,2.65
2022-12-19T08:29:31.103Z,3.08
2022-12-19T08:31:58.290Z,2.90
2022-12-19T08:34:25.539Z,2.47
2022-12-19T08:36:52.719Z,3.30
2022-12-19T08:39:20.036Z,3.25
2022-12-19T08:41:47.303Z,3.08
2022-12-19T08:44:14.557Z,3.75
2022-12-19T08:46:48.064Z,3.30
2022-12-19T08:49:17.081Z,3.00
2022-12-19T08:51:44.260Z,2.72
2022-12-19T08:54:12.283Z,3.28
2022-12-19T08:56:41.925Z,3.25
2022-12-19T08:59:13.583Z,3.05
2022-12-19T09:01:43.291Z,3.03
2022-12-19T09:05:13.990Z,2.67
2022-12-19T09:06:58.040Z,3.10
2022-12-19T09:09:25.356Z,2.10
2022-12-19T09:11:52.558Z,2.42
2022-12-19T09:14:22.192Z,3.33
2022-12-19T09:16:49.548Z,2.05
2022-12-19T09:19:16.964Z,2.53
2022-12-19T09:21:44.288Z,3.45
2022-12-19T09:24:11.685Z,2.40
2022-12-19T09:26:39.523Z,2.20
2022-12-19T09:29:20.057Z,3.83
2022-12-19T09:31:50.430Z,2.92
2022-12-19T09:34:24.864Z,2.42
2022-12-19T09:37:00.425Z,2.50
2022-12-19T09:39:27.833Z,2.25
2022-12-19T09:41:55.081Z,2.65
2022-12-19T09:44:22.361Z,2.08
2022-12-19T09:46:50.909Z,2.15
2022-12-19T09:49:18.276Z,2.13
2022-12-19T09:51:45.540Z,1.80
2022-12-19T09:54:13.143Z,2.30
2022-12-19T09:56:45.712Z,1.90
2022-12-19T09:59:14.369Z,2.47
2022-12-19T10:01:41.930Z,1.70
2022-12-19T10:04:09.370Z,1.85
2022-12-19T10:07:19.813Z,1.55
2022-12-19T10:11:35.793Z,1.42
2022-12-19T10:12:45.484Z,1.67
2022-12-19T10:14:58.651Z,1.40
2022-12-19T10:17:25.851Z,1.50
2022-12-19T10:19:53.200Z,1.75
2022-12-19T10:22:20.489Z,1.92
2022-12-19T10:25:02.063Z,1.92
2022-12-19T10:27:35.036Z,2.20
2022-12-19T10:30:02.221Z,2.28
2022-12-19T10:32:29.461Z,2.67
2022-12-19T10:34:56.747Z,2.88
2022-12-19T10:37:30.849Z,3.47
2022-12-19T10:40:02.336Z,2.88
2022-12-19T10:42:29.663Z,2.97
2022-12-19T10:44:56.957Z,2.80
2022-12-19T10:47:24.155Z,3.38
2022-12-19T10:49:51.485Z,3.35
2022-12-19T10:52:18.806Z,4.32
2022-12-19T10:54:46.904Z,2.95
2022-12-19T10:57:14.289Z,3.35
2022-12-19T10:59:43.805Z,2.60
2022-12-19T11:02:11.738Z,2.33
2022-12-19T11:04:39.148Z,2.47
2022-12-19T11:07:06.426Z,2.20
2022-12-19T11:09:33.598Z,1.88
2022-12-19T11:15:31.419Z,2.95
2022-12-19T11:19:32.539Z,1.90
2022-12-19T11:23:39.141Z,1.40
2022-12-19T11:29:19.607Z,1.67
2022-12-19T11:29:34.559Z,1.55
2022-12-19T11:29:54.360Z,1.45
2022-12-19T11:30:47.664Z,1.42
2022-12-19T11:34:19.503Z,2.50
2022-12-19T11:36:46.929Z,1.90
2022-12-19T11:39:14.221Z,2.15
2022-12-19T11:41:41.411Z,1.80
2022-12-19T11:44:08.669Z,2.60
2022-12-19T11:46:35.936Z,2.53
2022-12-19T11:49:03.430Z,2.25
2022-12-19T11:51:30.689Z,2.70
2022-12-19T11:53:58.156Z,4.63
2022-12-19T11:56:27.846Z,2.25
2022-12-19T11:58:55.348Z,2.97
2022-12-19T12:01:22.501Z,3.50
2022-12-19T12:04:01.713Z,3.30
2022-12-19T12:06:31.670Z,3.53
2022-12-19T12:11:00.409Z,3.22
2022-12-19T12:19:10.325Z,3.58
2022-12-19T12:21:52.691Z,4.78
2022-12-19T12:31:14.804Z,3.67
2022-12-19T12:31:15.191Z,3.20
2022-12-19T12:31:22.383Z,3.35
2022-12-19T12:31:46.587Z,3.70
2022-12-19T12:31:48.509Z,3.35
2022-12-19T12:35:38.341Z,3.17
2022-12-19T12:39:40.112Z,3.28
2022-12-19T12:42:07.344Z,2.88
2022-12-19T12:44:35.455Z,3.47
2022-12-19T12:47:03.535Z,3.20
2022-12-19T12:49:31.007Z,3.17
2022-12-19T12:51:58.713Z,3.08
2022-12-19T12:54:25.962Z,4.30
2022-12-19T12:56:55.356Z,2.85
2022-12-19T12:59:22.720Z,2.45
2022-12-19T13:01:50.095Z,2.90
2022-12-19T13:04:17.476Z,2.92
2022-12-19T13:06:44.798Z,2.85
2022-12-19T13:09:11.970Z,4.15
2022-12-19T13:11:58.216Z,4.22
2022-12-19T13:14:25.517Z,2.70
2022-12-19T13:16:53.101Z,3.65
2022-12-19T13:19:27.499Z,2.78
2022-12-19T13:21:55.858Z,2.80
2022-12-19T13:24:23.331Z,2.63
2022-12-19T13:26:51.313Z,2.83
2022-12-19T13:29:18.620Z,3.25
2022-12-19T13:31:47.241Z,3.10
2022-12-19T13:34:14.498Z,3.22
2022-12-19T13:39:47.685Z,3.35
2022-12-19T13:39:56.637Z,3.58
2022-12-19T13:42:35.125Z,3.95
2022-12-19T13:45:03.091Z,3.30
2022-12-19T13:47:30.265Z,3.28
2022-12-19T13:49:57.519Z,3.60
2022-12-19T13:52:24.864Z,2.50
2022-12-19T13:54:52.119Z,3.33
2022-12-19T13:57:19.299Z,3.10
2022-12-19T13:59:59.349Z,3.28
2022-12-19T14:02:28.061Z,3.38
2022-12-19T14:04:55.528Z,3.03
2022-12-19T14:07:27.387Z,2.35
2022-12-19T14:11:38.717Z,3.40
2022-12-19T14:13:46.221Z,2.65
2022-12-19T14:15:57.692Z,2.70
2022-12-19T14:18:42.827Z,2.65
2022-12-19T14:22:06.387Z,2.42
2022-12-19T14:23:59.471Z,3.30
2022-12-19T14:28:20.370Z,2.55
2022-12-19T14:29:14.199Z,3.28
2022-12-19T14:31:58.329Z,3.55
2022-12-19T14:35:47.725Z,3.08
2022-12-19T14:37:16.090Z,3.33
2022-12-19T14:40:03.384Z,3.22
2022-12-19T14:43:55.712Z,3.40
2022-12-19T14:52:51.102Z,5.18
2022-12-19T14:54:11.397Z,3.00
2022-12-19T14:54:26.071Z,2.88
2022-12-19T14:54:34.886Z,2.83
2022-12-19T14:56:59.199Z,2.65
2022-12-19T14:59:27.285Z,3.92
2022-12-19T15:01:54.592Z,4.28
2022-12-19T15:04:49.092Z,3.15
2022-12-19T15:07:12.236Z,2.95
2022-12-19T15:10:59.989Z,3.17
2022-12-19T15:14:46.967Z,3.70
2022-12-19T15:15:33.505Z,2.83
2022-12-19T15:18:00.720Z,3.35
2022-12-19T15:20:27.960Z,3.20
2022-12-19T15:22:55.197Z,3.42
2022-12-19T15:25:53.124Z,3.20
2022-12-19T15:28:10.210Z,2.78
2022-12-19T15:30:37.409Z,2.67
2022-12-19T15:33:04.778Z,2.67
2022-12-19T15:35:31.971Z,2.88
2022-12-19T15:37:59.380Z,2.42
2022-12-19T15:40:26.577Z,4.40
2022-12-19T15:42:53.919Z,2.47
2022-12-19T15:45:21.123Z,2.42
2022-12-19T15:47:48.420Z,2.00
2022-12-19T15:50:15.634Z,2.13
2022-12-19T15:52:42.891Z,2.08
2022-12-19T15:55:10.065Z,2.40
2022-12-19T15:57:37.889Z,2.60
2022-12-19T16:00:05.148Z,2.45
2022-12-19T16:05:21.752Z,2.78
2022-12-19T16:07:48.987Z,3.38
2022-12-19T16:10:16.309Z,4.28
2022-12-19T16:12:43.562Z,3.97
2022-12-19T16:15:10.776Z,4.60
2022-12-19T16:17:38.011Z,3.22
2022-12-19T16:20:05.227Z,4.18
2022-12-19T16:22:32.414Z,3.72
2022-12-19T16:24:59.764Z,4.18
2022-12-19T16:27:27.103Z,3.38
2022-12-19T16:29:54.415Z,3.75
2022-12-19T16:32:24.516Z,3.50
2022-12-19T16:34:52.517Z,4.22
2022-12-19T16:37:19.751Z,3.92
2022-12-19T16:39:47.012Z,5.05
2022-12-19T16:42:14.327Z,5.22
2022-12-19T16:44:41.610Z,2.95
2022-12-19T16:47:10.396Z,4.07
2022-12-19T16:49:38.832Z,4.53
2022-12-19T16:52:06.154Z,4.65
2022-12-19T16:54:33.460Z,5.40
2022-12-19T16:57:00.849Z,4.38
2022-12-19T16:59:28.069Z,4.82
2022-12-19T17:01:56.433Z,4.47
2022-12-19T17:04:24.013Z,4.80
2022-12-19T17:06:51.326Z,5.63
2022-12-19T17:09:18.594Z,6.45
2022-12-19T17:11:45.935Z,5.15
2022-12-19T17:14:13.267Z,4.15
2022-12-19T17:16:40.515Z,4.43
2022-12-19T17:19:07.849Z,3.53
2022-12-19T17:21:35.048Z,5.22
2022-12-19T17:24:02.299Z,6.82
2022-12-19T17:26:29.877Z,4.63
2022-12-19T17:28:57.092Z,4.60
2022-12-19T17:31:24.576Z,4.30
2022-12-19T17:33:51.874Z,4.50
2022-12-19T17:36:24.817Z,4.65
2022-12-19T17:38:53.481Z,4.30
2022-12-19T17:41:20.927Z,4.43
2022-12-19T17:43:48.168Z,3.92
2022-12-19T17:46:15.790Z,5.22
2022-12-19T17:48:43.647Z,4.90
2022-12-19T17:51:12.091Z,4.68
2022-12-19T17:53:39.478Z,5.30
2022-12-19T17:56:06.646Z,4.85
2022-12-19T17:58:33.917Z,5.28
2022-12-19T18:01:01.126Z,5.00
2022-12-19T18:03:28.521Z,4.18
2022-12-19T18:05:55.774Z,6.63
2022-12-19T18:08:23.084Z,5.53
2022-12-19T18:10:51.392Z,4.32
2022-12-19T18:13:18.604Z,5.78
2022-12-19T18:15:45.786Z,4.80
2022-12-19T18:18:13.023Z,4.78
2022-12-19T18:20:40.248Z,5.63
2022-12-19T18:23:07.513Z,5.97
2022-12-19T18:25:35.834Z,5.60
2022-12-19T18:28:03.031Z,6.40
2022-12-19T18:30:30.274Z,5.35
2022-12-19T18:32:57.586Z,5.88
2022-12-19T18:35:24.774Z,5.60
2022-12-19T18:37:52.053Z,4.32
2022-12-19T18:40:23.262Z,3.97
2022-12-19T18:42:53.258Z,4.28
2022-12-19T18:45:20.427Z,5.00
2022-12-19T18:47:51.435Z,3.83
2022-12-19T18:50:18.933Z,4.93
2022-12-19T18:52:46.183Z,6.30
2022-12-19T18:55:14.734Z,4.95
2022-12-19T18:57:42.969Z,5.22
2022-12-19T19:00:10.702Z,5.72
2022-12-19T19:02:38.064Z,6.70
2022-12-19T19:05:06.659Z,4.22
2022-12-19T19:07:34.024Z,5.53
2022-12-19T19:10:01.540Z,6.22
2022-12-19T19:12:45.842Z,5.97
2022-12-19T19:15:13.223Z,6.05
2022-12-19T19:17:40.548Z,5.25
2022-12-19T19:20:07.869Z,5.00
2022-12-19T19:22:35.241Z,4.65
2022-12-19T19:25:02.513Z,5.32
2022-12-19T19:27:29.757Z,4.75
2022-12-19T19:29:57.582Z,4.78
2022-12-19T19:32:24.897Z,6.28
2022-12-19T19:34:52.152Z,5.72
2022-12-19T19:37:19.467Z,7.43
2022-12-19T19:39:47.801Z,5.03
2022-12-19T19:42:15.088Z,5.45
2022-12-19T19:44:42.581Z,6.68
2022-12-19T19:47:09.787Z,5.20
2022-12-19T19:49:37.197Z,3.90
2022-12-19T19:52:04.371Z,4.80
2022-12-19T19:54:31.713Z,5.53
2022-12-19T19:56:58.952Z,4.47
2022-12-19T19:59:26.297Z,4.90
2022-12-19T20:01:54.427Z,4.70
2022-12-19T20:04:22.083Z,6.72
2022-12-19T20:06:49.282Z,5.22
2022-12-19T20:09:16.693Z,4.78
2022-12-19T20:11:44.008Z,5.55
2022-12-19T20:14:11.275Z,5.35
2022-12-19T20:16:38.629Z,5.30
2022-12-19T20:19:05.937Z,5.00
2022-12-19T20:21:33.416Z,5.05
2022-12-19T20:24:00.740Z,6.20
2022-12-19T20:26:27.938Z,5.75
2022-12-19T20:28:55.195Z,5.47
2022-12-19T20:31:22.533Z,5.40
2022-12-19T20:33:50.518Z,4.90
2022-12-19T20:36:17.873Z,5.60
2022-12-19T20:38:45.264Z,4.90
2022-12-19T20:41:12.467Z,5.57
2022-12-19T20:43:39.787Z,4.78
2022-12-19T20:46:07.143Z,5.10
2022-12-19T20:48:34.517Z,5.95
2022-12-19T20:51:01.768Z,5.32
2022-12-19T20:53:29.189Z,4.32
2022-12-19T20:55:58.402Z,5.63
2022-12-19T20:58:25.819Z,6.35
2022-12-19T21:00:53.412Z,6.43
2022-12-19T21:03:29.820Z,4.22
2022-12-19T21:05:57.652Z,4.70
2022-12-19T21:08:24.883Z,4.28
2022-12-19T21:10:52.130Z,5.07
2022-12-19T21:13:19.389Z,3.83
2022-12-19T21:15:47.603Z,3.97
2022-12-19T21:18:14.811Z,5.68
2022-12-19T21:20:42.085Z,4.38
2022-12-19T21:23:09.267Z,5.72
2022-12-19T21:25:36.545Z,3.85
2022-12-19T21:28:03.739Z,5.03
2022-12-19T21:30:30.954Z,3.55
2022-12-19T21:32:58.174Z,3.88
2022-12-19T21:35:25.428Z,4.75
2022-12-19T21:37:52.644Z,4.60
2022-12-19T21:40:19.911Z,5.15
2022-12-19T21:42:47.162Z,5.63
2022-12-19T21:45:14.422Z,4.82
2022-12-19T21:47:42.219Z,4.20
2022-12-19T21:50:09.523Z,4.05
2022-12-19T21:52:36.781Z,6.22
2022-12-19T21:55:04.238Z,4.43
2022-12-19T21:57:31.454Z,4.18
2022-12-19T21:59:58.720Z,4.25
2022-12-19T22:02:26.062Z,3.35
2022-12-19T22:04:53.426Z,4.88
2022-12-19T22:07:20.639Z,4.28
2022-12-19T22:09:48.049Z,4.70
2022-12-19T22:12:15.400Z,4.28
2022-12-19T22:14:42.780Z,5.53
2022-12-19T22:17:10.388Z,4.25
2022-12-19T22:19:37.582Z,4.00
2022-12-19T22:22:04.943Z,4.32
2022-12-19T22:24:32.214Z,3.50
2022-12-19T22:26:59.400Z,3.75
2022-12-19T22:29:26.632Z,5.75
2022-12-19T22:31:53.998Z,4.32
2022-12-19T22:34:21.253Z,5.60
2022-12-19T22:36:48.882Z,3.78
2022-12-19T22:39:16.179Z,4.05
2022-12-19T22:41:43.390Z,4.18
2022-12-19T22:44:10.642Z,5.18
2022-12-19T22:46:37.932Z,4.43
2022-12-19T22:49:05.135Z,4.20
2022-12-19T22:51:32.373Z,4.63
2022-12-19T22:53:59.682Z,3.58
2022-12-19T22:56:26.833Z,3.15
2022-12-19T22:58:54.083Z,2.95
2022-12-19T23:01:21.470Z,2.90
2022-12-19T23:03:48.870Z,3.30
2022-12-19T23:06:16.397Z,3.60
2022-12-19T23:08:43.607Z,3.17
2022-12-19T23:11:11.391Z,3.05
2022-12-19T23:13:38.571Z,4.03
2022-12-19T23:16:05.917Z,3.88
2022-12-19T23:18:33.127Z,3.00
2022-12-19T23:21:00.504Z,3.15
2022-12-19T23:23:28.569Z,2.83
2022-12-19T23:25:55.800Z,3.75
2022-12-19T23:28:22.944Z,3.20
2022-12-19T23:30:50.182Z,4.18
2022-12-19T23:33:17.435Z,3.25
2022-12-19T23:35:44.729Z,2.55
2022-12-19T23:38:13.050Z,2.55
2022-12-19T23:40:40.317Z,2.70
2022-12-19T23:43:07.684Z,3.92
2022-12-19T23:45:35.029Z,3.55
2022-12-19T23:48:02.721Z,3.67
2022-12-19T23:50:29.941Z,4.32
2022-12-19T23:52:57.170Z,3.28
2022-12-19T23:55:24.434Z,4.28
2022-12-19T23:57:51.724Z,3.08
